sensor_id;sensor_type;location;lat;lon;timestamp;temperature;humidity
152;DHT22;68;48.792;9.164;2023-07-30T00:01:32;18.50;26.90
152;DHT22;68;48.792;9.164;2023-07-30T00:03:59;18.50;28.30
152;DHT22;68;48.792;9.164;2023-07-30T00:06:26;18.50;28.10
152;DHT22;68;48.792;9.164;2023-07-30T00:08:53;18.60;30.00
152;DHT22;68;48.792;9.164;2023-07-30T00:11:19;18.60;28.10
152;DHT22;68;48.792;9.164;2023-07-30T00:13:46;18.70;33.30
152;DHT22;68;48.792;9.164;2023-07-30T00:16:14;18.80;28.90
152;DHT22;68;48.792;9.164;2023-07-30T00:18:41;18.90;29.90
152;DHT22;68;48.792;9.164;2023-07-30T00:23:35;18.40;49.40
152;DHT22;68;48.792;9.164;2023-07-30T00:26:01;18.20;44.20
152;DHT22;68;48.792;9.164;2023-07-30T00:28:28;18.30;40.50
152;DHT22;68;48.792;9.164;2023-07-30T00:30:55;18.20;37.60
152;DHT22;68;48.792;9.164;2023-07-30T00:33:23;18.30;36.50
152;DHT22;68;48.792;9.164;2023-07-30T00:35:51;18.30;34.30
152;DHT22;68;48.792;9.164;2023-07-30T00:38:18;18.30;35.70
152;DHT22;68;48.792;9.164;2023-07-30T00:40:45;18.30;37.60
152;DHT22;68;48.792;9.164;2023-07-30T00:45:41;18.30;33.00
152;DHT22;68;48.792;9.164;2023-07-30T00:48:09;18.30;32.70
152;DHT22;68;48.792;9.164;2023-07-30T00:50:38;18.60;33.10
152;DHT22;68;48.792;9.164;2023-07-30T00:53:06;18.70;35.00
152;DHT22;68;48.792;9.164;2023-07-30T00:55:34;18.60;43.90
152;DHT22;68;48.792;9.164;2023-07-30T00:58:01;18.60;42.70
152;DHT22;68;48.792;9.164;2023-07-30T01:00:28;18.20;41.90
152;DHT22;68;48.792;9.164;2023-07-30T01:02:55;18.10;39.30
152;DHT22;68;48.792;9.164;2023-07-30T01:05:22;18.10;39.10
152;DHT22;68;48.792;9.164;2023-07-30T01:10:18;18.30;32.40
152;DHT22;68;48.792;9.164;2023-07-30T01:12:45;18.30;34.00
152;DHT22;68;48.792;9.164;2023-07-30T01:15:12;18.20;33.10
152;DHT22;68;48.792;9.164;2023-07-30T01:17:39;18.10;32.00
152;DHT22;68;48.792;9.164;2023-07-30T01:20:07;18.10;28.90
152;DHT22;68;48.792;9.164;2023-07-30T01:22:35;18.20;25.80
152;DHT22;68;48.792;9.164;2023-07-30T01:25:03;18.20;25.70
152;DHT22;68;48.792;9.164;2023-07-30T01:27:33;18.30;23.10
152;DHT22;68;48.792;9.164;2023-07-30T01:30:07;18.50;22.90
152;DHT22;68;48.792;9.164;2023-07-30T01:32:36;18.70;26.00
152;DHT22;68;48.792;9.164;2023-07-30T01:35:04;18.60;30.90
152;DHT22;68;48.792;9.164;2023-07-30T01:37:32;18.70;31.30
152;DHT22;68;48.792;9.164;2023-07-30T01:40:01;18.80;37.20
152;DHT22;68;48.792;9.164;2023-07-30T01:42:29;18.80;34.70
152;DHT22;68;48.792;9.164;2023-07-30T01:44:56;18.80;36.90
152;DHT22;68;48.792;9.164;2023-07-30T01:47:23;18.60;38.60
152;DHT22;68;48.792;9.164;2023-07-30T01:49:49;18.50;38.90
152;DHT22;68;48.792;9.164;2023-07-30T01:52:16;18.50;31.40
152;DHT22;68;48.792;9.164;2023-07-30T01:54:43;18.50;31.40
152;DHT22;68;48.792;9.164;2023-07-30T01:57:12;18.60;27.50
152;DHT22;68;48.792;9.164;2023-07-30T01:59:39;18.80;27.80
152;DHT22;68;48.792;9.164;2023-07-30T02:02:06;18.60;35.40
152;DHT22;68;48.792;9.164;2023-07-30T02:04:33;18.70;33.10
152;DHT22;68;48.792;9.164;2023-07-30T02:07:00;18.80;33.80
152;DHT22;68;48.792;9.164;2023-07-30T02:09:27;18.50;37.40
152;DHT22;68;48.792;9.164;2023-07-30T02:11:54;18.50;34.10
152;DHT22;68;48.792;9.164;2023-07-30T02:14:22;18.70;28.60
152;DHT22;68;48.792;9.164;2023-07-30T02:16:48;18.80;29.50
152;DHT22;68;48.792;9.164;2023-07-30T02:19:15;18.60;33.90
152;DHT22;68;48.792;9.164;2023-07-30T02:21:42;18.70;34.60
152;DHT22;68;48.792;9.164;2023-07-30T02:24:09;18.50;35.50
152;DHT22;68;48.792;9.164;2023-07-30T02:26:37;18.50;34.00
152;DHT22;68;48.792;9.164;2023-07-30T02:29:04;18.50;33.80
152;DHT22;68;48.792;9.164;2023-07-30T02:31:32;18.70;32.70
152;DHT22;68;48.792;9.164;2023-07-30T02:33:59;18.40;40.50
152;DHT22;68;48.792;9.164;2023-07-30T02:36:26;18.40;33.40
152;DHT22;68;48.792;9.164;2023-07-30T02:41:19;18.50;33.60
152;DHT22;68;48.792;9.164;2023-07-30T02:43:46;18.40;31.50
152;DHT22;68;48.792;9.164;2023-07-30T02:46:13;18.50;32.10
152;DHT22;68;48.792;9.164;2023-07-30T02:48:41;18.50;31.20
152;DHT22;68;48.792;9.164;2023-07-30T02:51:08;18.80;36.30
152;DHT22;68;48.792;9.164;2023-07-30T02:53:35;18.70;37.20
152;DHT22;68;48.792;9.164;2023-07-30T02:56:01;18.60;40.60
152;DHT22;68;48.792;9.164;2023-07-30T02:58:28;18.50;43.00
152;DHT22;68;48.792;9.164;2023-07-30T03:00:55;18.40;43.50
152;DHT22;68;48.792;9.164;2023-07-30T03:03:22;18.20;41.30
152;DHT22;68;48.792;9.164;2023-07-30T03:05:50;18.30;40.50
152;DHT22;68;48.792;9.164;2023-07-30T03:08:16;18.30;38.10
152;DHT22;68;48.792;9.164;2023-07-30T03:10:43;18.30;37.10
152;DHT22;68;48.792;9.164;2023-07-30T03:13:10;18.50;38.60
152;DHT22;68;48.792;9.164;2023-07-30T03:15:37;18.70;41.30
152;DHT22;68;48.792;9.164;2023-07-30T03:18:03;18.80;53.00
152;DHT22;68;48.792;9.164;2023-07-30T03:20:30;18.70;54.10
152;DHT22;68;48.792;9.164;2023-07-30T03:22:58;18.70;52.80
152;DHT22;68;48.792;9.164;2023-07-30T03:25:25;18.50;50.40
152;DHT22;68;48.792;9.164;2023-07-30T03:27:52;18.40;49.80
152;DHT22;68;48.792;9.164;2023-07-30T03:30:19;18.30;46.20
152;DHT22;68;48.792;9.164;2023-07-30T03:32:45;18.30;42.80
152;DHT22;68;48.792;9.164;2023-07-30T03:35:12;18.30;42.60
152;DHT22;68;48.792;9.164;2023-07-30T03:37:39;18.30;40.30
152;DHT22;68;48.792;9.164;2023-07-30T03:40:08;18.40;36.70
152;DHT22;68;48.792;9.164;2023-07-30T03:42:35;18.40;36.80
152;DHT22;68;48.792;9.164;2023-07-30T03:45:03;18.30;38.70
152;DHT22;68;48.792;9.164;2023-07-30T03:47:29;18.40;37.10
152;DHT22;68;48.792;9.164;2023-07-30T03:49:58;18.40;37.90
152;DHT22;68;48.792;9.164;2023-07-30T03:52:25;18.40;38.90
152;DHT22;68;48.792;9.164;2023-07-30T03:54:52;18.50;38.60
152;DHT22;68;48.792;9.164;2023-07-30T03:57:20;18.70;38.30
152;DHT22;68;48.792;9.164;2023-07-30T03:59:47;18.70;43.00
152;DHT22;68;48.792;9.164;2023-07-30T04:02:15;18.80;47.50
152;DHT22;68;48.792;9.164;2023-07-30T04:04:42;18.50;46.70
152;DHT22;68;48.792;9.164;2023-07-30T04:07:10;18.50;44.00
152;DHT22;68;48.792;9.164;2023-07-30T04:09:37;18.60;39.00
152;DHT22;68;48.792;9.164;2023-07-30T04:12:04;18.70;40.10
152;DHT22;68;48.792;9.164;2023-07-30T04:14:35;18.70;44.30
152;DHT22;68;48.792;9.164;2023-07-30T04:17:02;18.50;44.30
152;DHT22;68;48.792;9.164;2023-07-30T04:19:29;18.40;40.90
152;DHT22;68;48.792;9.164;2023-07-30T04:21:56;18.40;40.90
152;DHT22;68;48.792;9.164;2023-07-30T04:24:23;18.70;38.70
152;DHT22;68;48.792;9.164;2023-07-30T04:26:51;18.90;43.00
152;DHT22;68;48.792;9.164;2023-07-30T04:29:18;19.00;47.00
152;DHT22;68;48.792;9.164;2023-07-30T04:31:46;18.90;47.30
152;DHT22;68;48.792;9.164;2023-07-30T04:34:13;18.90;47.60
152;DHT22;68;48.792;9.164;2023-07-30T04:36:40;19.00;47.00
152;DHT22;68;48.792;9.164;2023-07-30T04:39:07;18.90;49.40
152;DHT22;68;48.792;9.164;2023-07-30T04:41:34;18.90;49.40
152;DHT22;68;48.792;9.164;2023-07-30T04:44:01;18.90;48.90
152;DHT22;68;48.792;9.164;2023-07-30T04:48:56;19.00;48.50
152;DHT22;68;48.792;9.164;2023-07-30T04:51:23;18.80;51.00
152;DHT22;68;48.792;9.164;2023-07-30T04:53:50;18.50;49.50
152;DHT22;68;48.792;9.164;2023-07-30T04:56:17;18.40;43.90
152;DHT22;68;48.792;9.164;2023-07-30T04:58:46;18.60;38.80
152;DHT22;68;48.792;9.164;2023-07-30T05:01:13;18.60;39.70
152;DHT22;68;48.792;9.164;2023-07-30T05:03:39;18.90;34.90
152;DHT22;68;48.792;9.164;2023-07-30T05:06:08;19.00;42.70
152;DHT22;68;48.792;9.164;2023-07-30T05:08:34;18.80;42.70
152;DHT22;68;48.792;9.164;2023-07-30T05:11:01;18.70;43.40
152;DHT22;68;48.792;9.164;2023-07-30T05:15:55;18.70;41.50
152;DHT22;68;48.792;9.164;2023-07-30T05:18:22;18.80;40.00
152;DHT22;68;48.792;9.164;2023-07-30T05:20:49;18.70;41.80
152;DHT22;68;48.792;9.164;2023-07-30T05:23:17;18.90;36.30
152;DHT22;68;48.792;9.164;2023-07-30T05:25:45;18.90;39.60
152;DHT22;68;48.792;9.164;2023-07-30T05:28:12;18.90;44.20
152;DHT22;68;48.792;9.164;2023-07-30T05:30:39;18.70;40.30
152;DHT22;68;48.792;9.164;2023-07-30T05:33:06;18.60;38.30
152;DHT22;68;48.792;9.164;2023-07-30T05:35:32;18.60;37.00
152;DHT22;68;48.792;9.164;2023-07-30T05:37:59;18.90;32.40
152;DHT22;68;48.792;9.164;2023-07-30T05:40:27;18.80;37.00
152;DHT22;68;48.792;9.164;2023-07-30T05:42:54;18.50;34.10
152;DHT22;68;48.792;9.164;2023-07-30T05:45:21;18.60;32.80
152;DHT22;68;48.792;9.164;2023-07-30T05:47:48;18.70;33.80
152;DHT22;68;48.792;9.164;2023-07-30T05:50:17;18.90;36.90
152;DHT22;68;48.792;9.164;2023-07-30T05:52:44;18.80;39.10
152;DHT22;68;48.792;9.164;2023-07-30T05:57:42;19.00;45.30
152;DHT22;68;48.792;9.164;2023-07-30T06:00:10;19.20;43.50
152;DHT22;68;48.792;9.164;2023-07-30T06:02:37;19.20;45.10
152;DHT22;68;48.792;9.164;2023-07-30T06:05:04;19.50;52.40
152;DHT22;68;48.792;9.164;2023-07-30T06:07:31;19.50;53.20
152;DHT22;68;48.792;9.164;2023-07-30T06:09:57;19.60;58.40
152;DHT22;68;48.792;9.164;2023-07-30T06:12:24;19.60;60.00
152;DHT22;68;48.792;9.164;2023-07-30T06:14:52;19.60;58.60
152;DHT22;68;48.792;9.164;2023-07-30T06:17:19;19.70;58.80
152;DHT22;68;48.792;9.164;2023-07-30T06:22:13;19.60;58.10
152;DHT22;68;48.792;9.164;2023-07-30T06:24:40;19.60;58.00
152;DHT22;68;48.792;9.164;2023-07-30T06:27:07;19.70;56.20
152;DHT22;68;48.792;9.164;2023-07-30T06:29:35;19.70;54.60
152;DHT22;68;48.792;9.164;2023-07-30T06:32:03;19.60;54.60
152;DHT22;68;48.792;9.164;2023-07-30T06:34:30;19.50;53.50
152;DHT22;68;48.792;9.164;2023-07-30T06:36:57;19.60;51.00
152;DHT22;68;48.792;9.164;2023-07-30T06:39:24;19.60;52.50
152;DHT22;68;48.792;9.164;2023-07-30T06:41:50;19.50;51.80
152;DHT22;68;48.792;9.164;2023-07-30T06:44:17;19.50;48.40
152;DHT22;68;48.792;9.164;2023-07-30T06:46:44;19.60;44.90
152;DHT22;68;48.792;9.164;2023-07-30T06:49:12;19.70;39.80
152;DHT22;68;48.792;9.164;2023-07-30T06:51:39;19.80;40.70
152;DHT22;68;48.792;9.164;2023-07-30T06:54:06;19.90;41.10
152;DHT22;68;48.792;9.164;2023-07-30T06:56:32;19.90;42.80
152;DHT22;68;48.792;9.164;2023-07-30T06:58:59;19.90;42.80
152;DHT22;68;48.792;9.164;2023-07-30T07:01:26;20.00;45.10
152;DHT22;68;48.792;9.164;2023-07-30T07:03:53;20.10;51.20
152;DHT22;68;48.792;9.164;2023-07-30T07:06:21;19.90;46.10
152;DHT22;68;48.792;9.164;2023-07-30T07:08:47;20.00;46.00
152;DHT22;68;48.792;9.164;2023-07-30T07:11:14;19.90;46.40
152;DHT22;68;48.792;9.164;2023-07-30T07:13:41;20.10;45.50
152;DHT22;68;48.792;9.164;2023-07-30T07:16:10;20.20;49.50
152;DHT22;68;48.792;9.164;2023-07-30T07:18:37;20.20;50.30
152;DHT22;68;48.792;9.164;2023-07-30T07:21:04;20.20;54.90
152;DHT22;68;48.792;9.164;2023-07-30T07:23:32;20.10;54.40
152;DHT22;68;48.792;9.164;2023-07-30T07:25:59;20.20;53.20
152;DHT22;68;48.792;9.164;2023-07-30T07:28:25;20.30;57.50
152;DHT22;68;48.792;9.164;2023-07-30T07:30:52;20.10;60.30
152;DHT22;68;48.792;9.164;2023-07-30T07:33:19;20.10;58.60
152;DHT22;68;48.792;9.164;2023-07-30T07:35:45;20.00;56.60
152;DHT22;68;48.792;9.164;2023-07-30T07:38:12;20.00;54.40
152;DHT22;68;48.792;9.164;2023-07-30T07:40:41;19.70;55.50
152;DHT22;68;48.792;9.164;2023-07-30T07:43:08;19.40;50.30
152;DHT22;68;48.792;9.164;2023-07-30T07:45:35;19.00;45.50
152;DHT22;68;48.792;9.164;2023-07-30T07:50:28;18.90;39.60
152;DHT22;68;48.792;9.164;2023-07-30T07:52:55;18.90;34.60
152;DHT22;68;48.792;9.164;2023-07-30T07:55:22;18.90;34.40
152;DHT22;68;48.792;9.164;2023-07-30T07:57:50;19.00;33.80
152;DHT22;68;48.792;9.164;2023-07-30T08:00:17;19.10;34.00
152;DHT22;68;48.792;9.164;2023-07-30T08:02:44;19.20;36.40
152;DHT22;68;48.792;9.164;2023-07-30T08:05:11;19.40;40.40
152;DHT22;68;48.792;9.164;2023-07-30T08:07:38;19.60;43.60
152;DHT22;68;48.792;9.164;2023-07-30T08:10:06;19.70;48.10
152;DHT22;68;48.792;9.164;2023-07-30T08:12:33;19.90;50.80
152;DHT22;68;48.792;9.164;2023-07-30T08:15:01;19.80;56.80
152;DHT22;68;48.792;9.164;2023-07-30T08:17:28;19.90;54.80
152;DHT22;68;48.792;9.164;2023-07-30T08:19:55;19.90;51.80
152;DHT22;68;48.792;9.164;2023-07-30T08:22:21;19.90;51.60
152;DHT22;68;48.792;9.164;2023-07-30T08:24:48;20.10;51.80
152;DHT22;68;48.792;9.164;2023-07-30T08:27:15;20.00;53.70
152;DHT22;68;48.792;9.164;2023-07-30T08:29:42;20.00;48.70
152;DHT22;68;48.792;9.164;2023-07-30T08:32:11;20.10;49.10
152;DHT22;68;48.792;9.164;2023-07-30T08:34:38;20.00;54.50
152;DHT22;68;48.792;9.164;2023-07-30T08:37:05;19.90;54.00
152;DHT22;68;48.792;9.164;2023-07-30T08:39:32;19.90;52.90
152;DHT22;68;48.792;9.164;2023-07-30T08:41:58;20.00;48.10
152;DHT22;68;48.792;9.164;2023-07-30T08:44:25;19.90;53.00
152;DHT22;68;48.792;9.164;2023-07-30T08:46:52;19.90;51.20
152;DHT22;68;48.792;9.164;2023-07-30T08:49:20;19.90;50.10
152;DHT22;68;48.792;9.164;2023-07-30T08:51:48;19.80;57.80
152;DHT22;68;48.792;9.164;2023-07-30T08:54:20;19.90;54.70
152;DHT22;68;48.792;9.164;2023-07-30T08:56:48;20.00;59.00
152;DHT22;68;48.792;9.164;2023-07-30T08:59:16;19.90;60.70
152;DHT22;68;48.792;9.164;2023-07-30T09:01:44;19.90;64.80
152;DHT22;68;48.792;9.164;2023-07-30T09:04:14;20.00;65.20
152;DHT22;68;48.792;9.164;2023-07-30T09:06:44;20.10;67.20
152;DHT22;68;48.792;9.164;2023-07-30T09:09:14;20.10;61.90
152;DHT22;68;48.792;9.164;2023-07-30T09:11:40;20.10;66.90
152;DHT22;68;48.792;9.164;2023-07-30T09:14:07;20.10;68.60
152;DHT22;68;48.792;9.164;2023-07-30T09:16:34;20.20;67.20
152;DHT22;68;48.792;9.164;2023-07-30T09:19:01;20.20;61.70
152;DHT22;68;48.792;9.164;2023-07-30T09:21:32;20.40;71.10
152;DHT22;68;48.792;9.164;2023-07-30T09:24:02;20.40;73.10
152;DHT22;68;48.792;9.164;2023-07-30T09:29:08;20.10;85.70
152;DHT22;68;48.792;9.164;2023-07-30T09:31:45;20.20;82.10
152;DHT22;68;48.792;9.164;2023-07-30T09:34:15;20.20;77.70
152;DHT22;68;48.792;9.164;2023-07-30T09:36:44;19.80;83.60
152;DHT22;68;48.792;9.164;2023-07-30T09:39:16;19.80;76.50
152;DHT22;68;48.792;9.164;2023-07-30T09:41:44;19.90;72.40
152;DHT22;68;48.792;9.164;2023-07-30T09:44:11;19.80;78.70
152;DHT22;68;48.792;9.164;2023-07-30T09:46:46;19.90;82.90
152;DHT22;68;48.792;9.164;2023-07-30T09:51:40;19.80;84.20
152;DHT22;68;48.792;9.164;2023-07-30T09:54:08;19.60;83.00
152;DHT22;68;48.792;9.164;2023-07-30T09:56:38;19.50;83.90
152;DHT22;68;48.792;9.164;2023-07-30T09:59:05;19.60;82.20
152;DHT22;68;48.792;9.164;2023-07-30T10:01:33;19.70;85.90
152;DHT22;68;48.792;9.164;2023-07-30T10:04:07;20.00;83.70
152;DHT22;68;48.792;9.164;2023-07-30T10:06:36;20.10;78.10
152;DHT22;68;48.792;9.164;2023-07-30T10:09:04;20.10;81.60
152;DHT22;68;48.792;9.164;2023-07-30T10:11:32;19.90;88.10
152;DHT22;68;48.792;9.164;2023-07-30T10:14:02;20.00;90.80
152;DHT22;68;48.792;9.164;2023-07-30T10:16:29;20.30;91.40
152;DHT22;68;48.792;9.164;2023-07-30T10:18:57;20.40;93.20
152;DHT22;68;48.792;9.164;2023-07-30T10:21:25;20.30;90.20
152;DHT22;68;48.792;9.164;2023-07-30T10:23:59;20.30;91.80
152;DHT22;68;48.792;9.164;2023-07-30T10:26:30;20.30;93.60
152;DHT22;68;48.792;9.164;2023-07-30T10:29:16;20.20;93.60
152;DHT22;68;48.792;9.164;2023-07-30T10:31:48;20.20;92.90
152;DHT22;68;48.792;9.164;2023-07-30T10:34:15;20.30;92.70
152;DHT22;68;48.792;9.164;2023-07-30T10:36:43;20.50;93.80
152;DHT22;68;48.792;9.164;2023-07-30T10:39:12;20.60;92.20
152;DHT22;68;48.792;9.164;2023-07-30T10:41:39;20.90;92.80
152;DHT22;68;48.792;9.164;2023-07-30T10:44:06;21.10;92.20
152;DHT22;68;48.792;9.164;2023-07-30T10:46:34;21.10;91.70
152;DHT22;68;48.792;9.164;2023-07-30T10:49:04;21.20;89.90
152;DHT22;68;48.792;9.164;2023-07-30T10:51:32;21.40;91.40
152;DHT22;68;48.792;9.164;2023-07-30T10:53:59;21.60;91.30
152;DHT22;68;48.792;9.164;2023-07-30T10:56:26;21.50;86.00
152;DHT22;68;48.792;9.164;2023-07-30T10:58:53;21.50;90.20
152;DHT22;68;48.792;9.164;2023-07-30T11:01:24;21.60;89.70
152;DHT22;68;48.792;9.164;2023-07-30T11:03:52;21.60;90.10
152;DHT22;68;48.792;9.164;2023-07-30T11:06:22;21.50;88.00
152;DHT22;68;48.792;9.164;2023-07-30T11:08:49;21.50;87.50
152;DHT22;68;48.792;9.164;2023-07-30T11:11:16;21.30;87.00
152;DHT22;68;48.792;9.164;2023-07-30T11:13:44;21.10;89.60
152;DHT22;68;48.792;9.164;2023-07-30T11:16:12;21.00;85.80
152;DHT22;68;48.792;9.164;2023-07-30T11:18:40;20.90;85.50
152;DHT22;68;48.792;9.164;2023-07-30T11:21:10;21.00;86.90
152;DHT22;68;48.792;9.164;2023-07-30T11:23:38;21.20;87.80
152;DHT22;68;48.792;9.164;2023-07-30T11:26:06;21.20;84.30
152;DHT22;68;48.792;9.164;2023-07-30T11:28:34;21.30;86.10
152;DHT22;68;48.792;9.164;2023-07-30T11:31:04;21.30;86.40
152;DHT22;68;48.792;9.164;2023-07-30T11:33:31;21.40;87.10
152;DHT22;68;48.792;9.164;2023-07-30T11:36:00;21.60;85.30
152;DHT22;68;48.792;9.164;2023-07-30T11:38:29;21.80;83.70
152;DHT22;68;48.792;9.164;2023-07-30T11:40:57;22.00;87.00
152;DHT22;68;48.792;9.164;2023-07-30T11:43:24;21.90;86.20
152;DHT22;68;48.792;9.164;2023-07-30T11:46:10;22.10;84.30
152;DHT22;68;48.792;9.164;2023-07-30T11:48:38;22.10;85.40
152;DHT22;68;48.792;9.164;2023-07-30T11:51:04;22.40;84.00
152;DHT22;68;48.792;9.164;2023-07-30T11:53:49;22.60;82.30
152;DHT22;68;48.792;9.164;2023-07-30T11:56:18;22.70;81.40
152;DHT22;68;48.792;9.164;2023-07-30T11:58:45;22.80;81.70
152;DHT22;68;48.792;9.164;2023-07-30T12:01:12;23.20;81.10
152;DHT22;68;48.792;9.164;2023-07-30T12:03:40;23.50;81.10
152;DHT22;68;48.792;9.164;2023-07-30T12:06:09;23.80;78.30
152;DHT22;68;48.792;9.164;2023-07-30T12:08:36;24.20;76.50
152;DHT22;68;48.792;9.164;2023-07-30T12:11:04;24.30;71.90
152;DHT22;68;48.792;9.164;2023-07-30T12:13:31;24.30;73.50
152;DHT22;68;48.792;9.164;2023-07-30T12:15:59;24.20;75.60
152;DHT22;68;48.792;9.164;2023-07-30T12:18:26;24.40;75.40
152;DHT22;68;48.792;9.164;2023-07-30T12:20:55;24.80;74.30
152;DHT22;68;48.792;9.164;2023-07-30T12:23:23;24.70;75.00
152;DHT22;68;48.792;9.164;2023-07-30T12:25:51;24.70;73.90
152;DHT22;68;48.792;9.164;2023-07-30T12:28:19;24.30;75.50
152;DHT22;68;48.792;9.164;2023-07-30T12:30:46;23.80;76.00
152;DHT22;68;48.792;9.164;2023-07-30T12:33:13;23.60;76.60
152;DHT22;68;48.792;9.164;2023-07-30T12:35:40;23.70;78.10
152;DHT22;68;48.792;9.164;2023-07-30T12:38:06;23.90;75.80
152;DHT22;68;48.792;9.164;2023-07-30T12:40:33;23.70;77.00
152;DHT22;68;48.792;9.164;2023-07-30T12:43:01;23.50;76.90
152;DHT22;68;48.792;9.164;2023-07-30T12:45:29;23.50;78.30
152;DHT22;68;48.792;9.164;2023-07-30T12:47:57;23.30;77.90
152;DHT22;68;48.792;9.164;2023-07-30T12:50:24;23.10;78.60
152;DHT22;68;48.792;9.164;2023-07-30T12:52:50;22.80;81.20
152;DHT22;68;48.792;9.164;2023-07-30T12:55:17;23.00;79.10
152;DHT22;68;48.792;9.164;2023-07-30T12:57:44;23.30;77.50
152;DHT22;68;48.792;9.164;2023-07-30T13:00:12;22.90;78.70
152;DHT22;68;48.792;9.164;2023-07-30T13:02:40;22.60;79.90
152;DHT22;68;48.792;9.164;2023-07-30T13:05:07;22.40;81.10
152;DHT22;68;48.792;9.164;2023-07-30T13:07:34;22.60;78.70
152;DHT22;68;48.792;9.164;2023-07-30T13:10:05;22.80;76.20
152;DHT22;68;48.792;9.164;2023-07-30T13:12:33;23.10;75.30
152;DHT22;68;48.792;9.164;2023-07-30T13:15:00;23.20;73.40
152;DHT22;68;48.792;9.164;2023-07-30T13:17:27;23.10;74.20
152;DHT22;68;48.792;9.164;2023-07-30T13:19:55;23.10;75.70
152;DHT22;68;48.792;9.164;2023-07-30T13:22:22;23.10;74.90
152;DHT22;68;48.792;9.164;2023-07-30T13:24:49;23.10;75.10
152;DHT22;68;48.792;9.164;2023-07-30T13:27:17;23.10;76.00
152;DHT22;68;48.792;9.164;2023-07-30T13:29:44;23.00;76.80
152;DHT22;68;48.792;9.164;2023-07-30T13:32:10;23.20;74.00
152;DHT22;68;48.792;9.164;2023-07-30T13:34:37;23.00;75.00
152;DHT22;68;48.792;9.164;2023-07-30T13:37:06;22.90;76.60
152;DHT22;68;48.792;9.164;2023-07-30T13:39:33;22.90;74.60
152;DHT22;68;48.792;9.164;2023-07-30T13:42:00;23.00;74.70
152;DHT22;68;48.792;9.164;2023-07-30T13:44:27;23.00;74.50
152;DHT22;68;48.792;9.164;2023-07-30T13:46:53;23.10;74.00
152;DHT22;68;48.792;9.164;2023-07-30T13:49:20;23.10;73.80
152;DHT22;68;48.792;9.164;2023-07-30T13:51:47;23.10;74.80
152;DHT22;68;48.792;9.164;2023-07-30T13:54:15;23.10;76.10
152;DHT22;68;48.792;9.164;2023-07-30T13:56:42;23.30;76.40
152;DHT22;68;48.792;9.164;2023-07-30T13:59:09;23.00;74.80
152;DHT22;68;48.792;9.164;2023-07-30T14:01:35;22.70;76.20
152;DHT22;68;48.792;9.164;2023-07-30T14:04:02;22.80;74.80
152;DHT22;68;48.792;9.164;2023-07-30T14:06:29;23.10;74.40
152;DHT22;68;48.792;9.164;2023-07-30T14:08:56;23.40;73.20
152;DHT22;68;48.792;9.164;2023-07-30T14:11:26;23.10;74.60
152;DHT22;68;48.792;9.164;2023-07-30T14:13:53;23.30;73.40
152;DHT22;68;48.792;9.164;2023-07-30T14:16:19;23.10;74.00
152;DHT22;68;48.792;9.164;2023-07-30T14:18:46;23.10;73.40
152;DHT22;68;48.792;9.164;2023-07-30T14:21:13;23.00;75.70
152;DHT22;68;48.792;9.164;2023-07-30T14:23:40;23.00;74.20
152;DHT22;68;48.792;9.164;2023-07-30T14:26:06;22.90;76.40
152;DHT22;68;48.792;9.164;2023-07-30T14:28:35;23.00;74.90
152;DHT22;68;48.792;9.164;2023-07-30T14:31:01;22.90;75.10
152;DHT22;68;48.792;9.164;2023-07-30T14:33:28;23.00;73.00
152;DHT22;68;48.792;9.164;2023-07-30T14:35:55;23.00;71.90
152;DHT22;68;48.792;9.164;2023-07-30T14:38:22;22.90;73.40
152;DHT22;68;48.792;9.164;2023-07-30T14:40:49;22.90;74.10
152;DHT22;68;48.792;9.164;2023-07-30T14:43:15;23.00;72.20
152;DHT22;68;48.792;9.164;2023-07-30T14:45:43;23.00;73.30
152;DHT22;68;48.792;9.164;2023-07-30T14:48:10;22.90;72.50
152;DHT22;68;48.792;9.164;2023-07-30T14:50:37;22.90;73.40
152;DHT22;68;48.792;9.164;2023-07-30T14:53:04;23.00;73.30
152;DHT22;68;48.792;9.164;2023-07-30T14:55:31;22.80;73.20
152;DHT22;68;48.792;9.164;2023-07-30T14:57:57;22.90;72.70
152;DHT22;68;48.792;9.164;2023-07-30T15:00:26;22.80;72.50
152;DHT22;68;48.792;9.164;2023-07-30T15:02:54;22.70;72.90
152;DHT22;68;48.792;9.164;2023-07-30T15:05:21;22.40;74.70
152;DHT22;68;48.792;9.164;2023-07-30T15:07:47;22.40;71.30
152;DHT22;68;48.792;9.164;2023-07-30T15:10:14;22.20;74.00
152;DHT22;68;48.792;9.164;2023-07-30T15:12:42;22.30;73.30
152;DHT22;68;48.792;9.164;2023-07-30T15:15:10;22.30;73.00
152;DHT22;68;48.792;9.164;2023-07-30T15:17:37;22.20;71.40
152;DHT22;68;48.792;9.164;2023-07-30T15:20:06;22.20;70.40
152;DHT22;68;48.792;9.164;2023-07-30T15:22:33;22.20;71.00
152;DHT22;68;48.792;9.164;2023-07-30T15:25:00;22.20;72.10
152;DHT22;68;48.792;9.164;2023-07-30T15:27:27;22.10;70.50
152;DHT22;68;48.792;9.164;2023-07-30T15:29:53;22.00;71.10
152;DHT22;68;48.792;9.164;2023-07-30T15:32:21;21.90;71.70
152;DHT22;68;48.792;9.164;2023-07-30T15:34:48;21.90;71.20
152;DHT22;68;48.792;9.164;2023-07-30T15:37:16;21.70;70.20
152;DHT22;68;48.792;9.164;2023-07-30T15:39:43;21.60;71.90
152;DHT22;68;48.792;9.164;2023-07-30T15:42:10;21.70;72.50
152;DHT22;68;48.792;9.164;2023-07-30T15:44:37;21.80;70.40
152;DHT22;68;48.792;9.164;2023-07-30T15:47:04;21.80;71.30
152;DHT22;68;48.792;9.164;2023-07-30T15:49:31;21.60;71.10
152;DHT22;68;48.792;9.164;2023-07-30T15:51:58;21.60;70.80
152;DHT22;68;48.792;9.164;2023-07-30T15:54:33;21.60;69.30
152;DHT22;68;48.792;9.164;2023-07-30T15:57:00;21.60;72.00
152;DHT22;68;48.792;9.164;2023-07-30T15:59:26;21.70;69.70
152;DHT22;68;48.792;9.164;2023-07-30T16:01:53;21.60;73.30
152;DHT22;68;48.792;9.164;2023-07-30T16:04:21;21.60;72.70
152;DHT22;68;48.792;9.164;2023-07-30T16:06:48;21.70;70.80
152;DHT22;68;48.792;9.164;2023-07-30T16:09:15;21.70;70.50
152;DHT22;68;48.792;9.164;2023-07-30T16:11:43;21.60;68.30
152;DHT22;68;48.792;9.164;2023-07-30T16:14:10;21.60;67.50
152;DHT22;68;48.792;9.164;2023-07-30T16:16:37;21.50;69.50
152;DHT22;68;48.792;9.164;2023-07-30T16:19:05;21.50;69.10
152;DHT22;68;48.792;9.164;2023-07-30T16:21:33;21.60;67.90
152;DHT22;68;48.792;9.164;2023-07-30T16:24:01;21.50;72.00
152;DHT22;68;48.792;9.164;2023-07-30T16:26:28;21.40;69.90
152;DHT22;68;48.792;9.164;2023-07-30T16:28:56;21.50;70.50
152;DHT22;68;48.792;9.164;2023-07-30T16:31:23;21.40;70.60
152;DHT22;68;48.792;9.164;2023-07-30T16:33:49;21.20;70.10
152;DHT22;68;48.792;9.164;2023-07-30T16:36:16;21.30;68.90
152;DHT22;68;48.792;9.164;2023-07-30T16:38:43;21.30;69.30
152;DHT22;68;48.792;9.164;2023-07-30T16:41:10;21.30;70.70
152;DHT22;68;48.792;9.164;2023-07-30T16:43:36;21.10;68.70
152;DHT22;68;48.792;9.164;2023-07-30T16:46:04;21.20;67.50
152;DHT22;68;48.792;9.164;2023-07-30T16:48:31;21.30;67.90
152;DHT22;68;48.792;9.164;2023-07-30T16:50:58;21.30;67.70
152;DHT22;68;48.792;9.164;2023-07-30T16:53:25;21.30;71.60
152;DHT22;68;48.792;9.164;2023-07-30T16:55:52;21.30;70.00
152;DHT22;68;48.792;9.164;2023-07-30T16:58:19;21.10;69.90
152;DHT22;68;48.792;9.164;2023-07-30T17:00:45;21.00;72.00
152;DHT22;68;48.792;9.164;2023-07-30T17:03:13;21.00;68.60
152;DHT22;68;48.792;9.164;2023-07-30T17:05:40;20.80;69.40
152;DHT22;68;48.792;9.164;2023-07-30T17:08:07;20.80;69.20
152;DHT22;68;48.792;9.164;2023-07-30T17:10:37;20.70;68.80
152;DHT22;68;48.792;9.164;2023-07-30T17:13:03;20.80;71.10
152;DHT22;68;48.792;9.164;2023-07-30T17:15:31;20.80;71.60
152;DHT22;68;48.792;9.164;2023-07-30T17:17:57;20.90;68.90
152;DHT22;68;48.792;9.164;2023-07-30T17:20:25;21.00;68.60